Time;durP1;ratioP1;P1;durP2;ratioP2;P2;SDS_P1;SDS_P2;PMS_P1;PMS_P2;Temp;Humidity;BMP_temperature;BMP_pressure;BME280_temperature;BME280_humidity;BME280_pressure;Samples;Min_cycle;Max_cycle;Signal;HPM_P1;HPM_P2
2022/02/27 00:01:30;;;;;;;25.65;10.52;;;;;;;5.40;67.10;97680.25;5045874;28;20049;-56
2022/02/27 00:03:57;;;;;;;26.67;9.77;;;;;;;5.42;67.22;97680.75;5061545;28;20052;-57
2022/02/27 00:06:24;;;;;;;22.00;9.15;;;;;;;4.99;68.28;97690.84;5065521;28;20063;-57
2022/02/27 00:08:51;;;;;;;26.48;9.13;;;;;;;4.72;68.93;97669.09;5066242;28;20151;-56
2022/02/27 00:11:18;;;;;;;25.73;10.20;;;;;;;4.68;69.93;97688.94;5066751;28;20060;-56
2022/02/27 00:13:45;;;;;;;28.00;12.70;;;;;;;4.17;70.27;97609.16;5066427;28;20082;-56
2022/02/27 00:16:11;;;;;;;24.20;10.15;;;;;;;4.45;70.87;97656.41;5065956;28;20067;-58
2022/02/27 00:18:38;;;;;;;26.33;10.35;;;;;;;4.80;70.50;97682.06;5065578;28;20571;-57
2022/02/27 00:21:05;;;;;;;25.38;9.32;;;;;;;4.39;71.15;97658.47;5065394;28;20511;-56
2022/02/27 00:23:31;;;;;;;28.85;10.98;;;;;;;4.51;71.46;97680.66;5065614;28;20055;-56
2022/02/27 00:25:58;;;;;;;19.02;9.07;;;;;;;4.71;71.19;97670.25;5065519;28;20052;-56
2022/02/27 00:28:25;;;;;;;27.83;9.20;;;;;;;4.75;69.99;97625.38;5065629;28;20078;-58
2022/02/27 00:30:51;;;;;;;25.05;9.93;;;;;;;5.17;69.99;97663.09;5065528;28;20053;-57
2022/02/27 00:33:18;;;;;;;33.38;11.93;;;;;;;5.24;68.85;97649.72;5065570;28;20056;-57
2022/02/27 00:35:46;;;;;;;27.23;11.23;;;;;;;5.30;69.43;97647.59;5065974;28;20063;-56
2022/02/27 00:38:13;;;;;;;26.15;11.65;;;;;;;5.08;68.99;97598.31;5065390;28;20052;-58
2022/02/27 00:40:40;;;;;;;22.90;9.40;;;;;;;5.44;68.12;97640.84;5063188;28;20056;-59
2022/02/27 00:43:06;;;;;;;28.35;10.82;;;;;;;4.85;68.88;97563.91;5065673;28;20048;-56
2022/02/27 00:45:33;;;;;;;30.23;10.48;;;;;;;4.36;69.78;97554.91;5063903;28;20052;-56
2022/02/27 00:48:00;;;;;;;25.30;10.60;;;;;;;5.34;69.48;97654.88;5064722;28;20538;-57
2022/02/27 00:50:27;;;;;;;27.05;10.77;;;;;;;5.19;68.94;97599.63;5065461;28;20453;-56
2022/02/27 00:52:54;;;;;;;19.75;9.00;;;;;;;4.84;68.91;97554.06;5065560;28;20078;-56
2022/02/27 00:55:23;;;;;;;30.63;9.52;;;;;;;5.55;68.47;97635.81;5065257;28;20395;-56
2022/02/27 00:57:50;;;;;;;22.95;9.77;;;;;;;4.98;68.15;97560.22;5065327;28;20059;-57
2022/02/27 01:00:17;;;;;;;23.25;11.13;;;;;;;5.65;68.01;97635.50;5063382;28;20063;-55
2022/02/27 01:02:43;;;;;;;24.35;9.98;;;;;;;4.84;69.77;97633.66;5059618;28;20068;-57
2022/02/27 01:05:10;;;;;;;23.90;9.80;;;;;;;4.44;71.47;97606.22;5043219;28;20061;-56
2022/02/27 01:07:37;;;;;;;31.27;10.95;;;;;;;3.65;72.62;97530.56;5045199;28;20523;-55
2022/02/27 01:10:05;;;;;;;24.67;10.45;;;;;;;4.34;73.33;97639.44;5045130;28;20049;-56
2022/02/27 01:12:32;;;;;;;29.60;11.27;;;;;;;4.46;73.20;97641.56;5044717;28;20052;-57
2022/02/27 01:14:58;;;;;;;26.83;11.13;;;;;;;4.24;73.79;97622.44;5044725;28;20053;-56
2022/02/27 01:17:25;;;;;;;27.58;11.35;;;;;;;3.85;73.22;97540.19;5044203;28;20549;-57
2022/02/27 01:19:52;;;;;;;30.13;12.35;;;;;;;4.41;73.09;97615.09;5043103;28;20131;-56
2022/02/27 01:22:19;;;;;;;25.17;10.38;;;;;;;3.96;75.36;97619.06;5043471;28;20522;-56
2022/02/27 01:24:46;;;;;;;29.33;10.55;;;;;;;3.74;75.30;97558.81;5045138;28;20078;-57
2022/02/27 01:27:12;;;;;;;22.75;9.90;;;;;;;4.32;75.18;97619.75;5045158;28;20053;-57
2022/02/27 01:29:39;;;;;;;21.60;9.65;;;;;;;4.45;74.72;97618.84;5045115;28;20542;-56
2022/02/27 01:32:06;;;;;;;21.58;8.82;;;;;;;4.55;74.25;97624.00;5044444;28;20056;-58
2022/02/27 01:34:33;;;;;;;31.23;13.07;;;;;;;4.40;73.26;97577.00;5044386;28;20500;-57
2022/02/27 01:37:00;;;;;;;33.08;13.95;;;;;;;4.51;73.28;97590.13;5044219;28;20056;-57
2022/02/27 01:39:27;;;;;;;36.67;11.60;;;;;;;4.59;73.06;97603.06;5043201;28;20067;-55
2022/02/27 01:41:53;;;;;;;27.67;13.05;;;;;;;4.70;72.42;97595.34;5044382;28;20049;-56
2022/02/27 01:44:21;;;;;;;33.95;14.48;;;;;;;4.61;72.27;97583.53;5042834;28;20049;-58
2022/02/27 01:47:03;;;;;;;30.35;13.18;;;;;;;4.31;72.50;97540.53;5043911;28;20144;-56
2022/02/27 01:49:30;;;;;;;29.75;13.68;;;;;;;4.66;71.99;97602.59;5044385;28;20049;-56
2022/02/27 01:51:59;;;;;;;34.50;14.07;;;;;;;4.68;71.89;97610.50;5044154;28;20437;-56
2022/02/27 01:54:26;;;;;;;35.42;14.20;;;;;;;4.28;72.43;97547.44;5044020;28;20097;-56
2022/02/27 01:56:53;;;;;;;44.75;16.98;;;;;;;4.68;72.79;97598.41;5043812;28;20055;-57
2022/02/27 01:59:20;;;;;;;32.75;14.65;;;;;;;4.73;72.43;97605.69;5042530;28;20055;-56
2022/02/27 02:01:46;;;;;;;39.38;14.15;;;;;;;4.69;71.97;97601.97;5043815;28;20052;-57
2022/02/27 02:04:14;;;;;;;50.53;17.15;;;;;;;4.65;72.14;97609.19;5059908;28;20061;-58
2022/02/27 02:06:43;;;;;;;44.78;15.65;;;;;;;4.68;71.81;97607.78;5063986;28;20052;-57
2022/02/27 02:09:09;;;;;;;32.60;11.30;;;;;;;4.58;72.07;97612.41;5063910;28;20053;-56
2022/02/27 02:11:37;;;;;;;24.98;10.27;;;;;;;4.43;72.86;97599.13;5063794;28;20048;-57
2022/02/27 02:14:05;;;;;;;23.92;11.05;;;;;;;4.46;72.71;97606.72;5063556;28;20060;-57
2022/02/27 02:16:44;;;;;;;28.48;10.95;;;;;;;4.46;72.60;97614.94;5063638;28;20048;-57
2022/02/27 02:19:15;;;;;;;25.67;12.30;;;;;;;4.36;73.04;97609.75;5062587;28;20055;-57
2022/02/27 02:21:45;;;;;;;26.60;11.43;;;;;;;4.38;72.39;97588.31;5063921;28;20461;-57
2022/02/27 02:24:12;;;;;;;28.95;11.30;;;;;;;4.50;72.93;97583.00;5063609;28;20231;-56
2022/02/27 02:26:41;;;;;;;30.95;12.55;;;;;;;4.50;72.80;97587.72;5063247;28;20439;-56
2022/02/27 02:29:10;;;;;;;23.83;11.18;;;;;;;4.49;72.12;97592.38;5062582;28;20044;-57
2022/02/27 02:31:38;;;;;;;34.33;14.23;;;;;;;4.52;72.36;97599.97;5063376;28;20055;-56
2022/02/27 02:34:06;;;;;;;40.38;16.27;;;;;;;4.40;73.08;97687.53;5061895;28;20059;-57
2022/02/27 02:36:33;;;;;;;39.17;17.15;;;;;;;4.48;73.19;97609.16;5063535;28;20055;-57
2022/02/27 02:39:01;;;;;;;37.83;15.75;;;;;;;3.73;72.37;97442.13;5063862;28;20067;-56
2022/02/27 02:41:28;;;;;;;39.38;15.43;;;;;;;4.72;72.08;97578.56;5062249;28;20055;-56
2022/02/27 02:43:55;;;;;;;31.27;13.88;;;;;;;4.83;72.17;97579.88;5063240;28;20488;-57
2022/02/27 02:46:22;;;;;;;32.97;14.48;;;;;;;4.72;72.14;97584.03;5063355;28;20048;-57
2022/02/27 02:48:49;;;;;;;33.05;14.55;;;;;;;4.42;72.24;97550.91;5063576;28;20052;-56
2022/02/27 02:51:16;;;;;;;30.92;14.30;;;;;;;4.96;71.68;97598.16;5061951;28;20547;-56
2022/02/27 02:53:43;;;;;;;35.53;13.95;;;;;;;4.46;72.19;97527.19;5062814;28;20059;-56
2022/02/27 02:56:11;;;;;;;31.17;13.45;;;;;;;5.06;71.52;97590.41;5062778;28;20052;-58
2022/02/27 02:58:40;;;;;;;37.97;15.07;;;;;;;5.13;71.21;97590.75;5061994;28;20048;-56
2022/02/27 03:01:09;;;;;;;40.15;15.45;;;;;;;5.19;71.17;97591.38;5063243;28;20055;-57
2022/02/27 03:03:37;;;;;;;36.63;14.93;;;;;;;5.19;71.14;97596.88;5051018;28;20060;-56
2022/02/27 03:06:05;;;;;;;46.13;19.45;;;;;;;5.07;71.63;97582.97;5043212;28;20052;-57
2022/02/27 03:08:32;;;;;;;33.95;14.02;;;;;;;4.85;70.94;97528.22;5043186;28;20060;-57
2022/02/27 03:11:02;;;;;;;31.27;13.15;;;;;;;5.12;71.02;97561.66;5041847;28;20085;-57
2022/02/27 03:13:29;;;;;;;34.20;14.15;;;;;;;5.14;70.64;97569.59;5043440;28;20075;-57
2022/02/27 03:15:55;;;;;;;35.15;14.50;;;;;;;4.71;70.70;97522.06;5043289;28;20049;-55
2022/02/27 03:18:22;;;;;;;36.15;14.02;;;;;;;5.05;71.50;97574.25;5043027;28;20455;-56
2022/02/27 03:20:49;;;;;;;35.40;15.38;;;;;;;4.93;70.70;97532.91;5042896;28;20057;-58
2022/02/27 03:23:15;;;;;;;37.95;15.23;;;;;;;5.18;70.97;97581.53;5043009;28;20546;-56
2022/02/27 03:25:43;;;;;;;32.72;14.23;;;;;;;4.68;71.04;97528.22;5043165;28;20500;-56
2022/02/27 03:28:10;;;;;;;36.72;15.07;;;;;;;5.14;70.81;97564.88;5043525;28;20056;-56
2022/02/27 03:30:38;;;;;;;23.75;11.88;;;;;;;4.75;73.58;97588.88;5044009;28;20057;-58
2022/02/27 03:33:05;;;;;;;28.63;11.52;;;;;;;4.25;74.52;97542.59;5042854;28;20057;-58
2022/02/27 03:35:32;;;;;;;37.70;15.05;;;;;;;4.63;74.55;97593.06;5042917;28;20056;-56
2022/02/27 03:38:00;;;;;;;37.05;14.90;;;;;;;3.96;75.52;97539.59;5042871;28;20075;-56
2022/02/27 03:40:27;;;;;;;30.30;13.40;;;;;;;4.34;76.67;97601.03;5044741;28;20053;-56
2022/02/27 03:42:53;;;;;;;26.20;10.73;;;;;;;3.76;78.85;97605.88;5045268;28;20068;-56
2022/02/27 03:45:20;;;;;;;31.77;12.30;;;;;;;3.84;79.19;97596.91;5044882;28;20487;-57
2022/02/27 03:47:47;;;;;;;25.92;10.02;;;;;;;4.09;78.47;97593.50;5046547;28;20459;-58
2022/02/27 03:50:16;;;;;;;30.20;11.13;;;;;;;3.46;78.17;97490.84;5046480;28;20508;-56
2022/02/27 03:52:44;;;;;;;24.98;11.50;;;;;;;4.38;77.40;97618.47;5046174;28;20838;-56
2022/02/27 03:55:14;;;;;;;28.02;13.27;;;;;;;4.45;76.87;97613.34;5045124;28;20435;-57
2022/02/27 03:57:41;;;;;;;24.48;11.00;;;;;;;4.60;76.07;97621.13;5046959;28;20053;-57
2022/02/27 04:00:12;;;;;;;28.83;12.13;;;;;;;4.68;75.45;97612.13;5046549;28;20061;-56
2022/02/27 04:02:39;;;;;;;27.48;11.55;;;;;;;4.80;75.43;97619.75;5049748;28;20049;-59
2022/02/27 04:05:07;;;;;;;31.42;14.38;;;;;;;4.90;75.35;97626.88;5066022;28;20060;-56
2022/02/27 04:07:34;;;;;;;40.55;14.73;;;;;;;4.84;75.24;97619.94;5064585;28;20044;-58
2022/02/27 04:10:01;;;;;;;34.13;14.32;;;;;;;4.91;75.02;97617.50;5065878;28;20048;-56
2022/02/27 04:12:27;;;;;;;35.42;12.63;;;;;;;4.82;74.65;97616.69;5064303;28;20056;-56
2022/02/27 04:14:54;;;;;;;27.33;13.05;;;;;;;4.85;74.79;97621.53;5065969;28;20059;-56
2022/02/27 04:17:21;;;;;;;26.17;12.57;;;;;;;4.55;75.16;97580.13;5065512;28;20103;-59
2022/02/27 04:19:48;;;;;;;27.42;12.95;;;;;;;4.53;74.95;97589.81;5066147;28;20049;-56
2022/02/27 04:22:15;;;;;;;43.00;16.85;;;;;;;4.93;74.61;97648.19;5066150;28;20044;-56
2022/02/27 04:24:42;;;;;;;28.80;13.25;;;;;;;5.02;74.16;97643.53;5065645;28;20590;-56
2022/02/27 04:27:08;;;;;;;38.40;16.02;;;;;;;5.04;74.67;97653.06;5065815;28;20048;-55
2022/02/27 04:29:35;;;;;;;37.90;18.27;;;;;;;4.96;73.79;97623.66;5065887;28;20052;-55
2022/02/27 04:32:04;;;;;;;38.90;17.35;;;;;;;5.12;73.43;97638.53;5065349;28;20670;-56
2022/02/27 04:34:31;;;;;;;43.88;18.63;;;;;;;5.04;73.58;97614.63;5065789;28;20067;-56
2022/02/27 04:36:57;;;;;;;45.97;20.85;;;;;;;5.18;73.70;97692.19;5065491;28;20522;-56
2022/02/27 04:39:24;;;;;;;38.58;19.17;;;;;;;5.25;72.89;97647.78;5063971;28;20049;-56
2022/02/27 04:41:51;;;;;;;37.78;16.08;;;;;;;5.32;72.58;97653.59;5065992;28;20052;-56
2022/02/27 04:44:17;;;;;;;29.13;13.70;;;;;;;4.84;74.34;97645.41;5065869;28;20502;-55
2022/02/27 04:46:44;;;;;;;36.33;16.48;;;;;;;4.61;77.31;97644.72;5065572;28;20052;-56
2022/02/27 04:49:11;;;;;;;53.97;18.88;;;;;;;4.74;75.90;97642.16;5064966;28;20515;-58
2022/02/27 04:51:37;;;;;;;46.13;18.60;;;;;;;4.48;77.32;97640.13;5062617;28;20064;-56
2022/02/27 04:54:07;;;;;;;34.67;15.02;;;;;;;4.01;77.00;97569.63;5065004;28;20056;-57
2022/02/27 04:56:34;;;;;;;49.00;20.02;;;;;;;4.61;77.59;97649.38;5065170;28;20106;-58
2022/02/27 04:59:01;;;;;;;37.25;14.70;;;;;;;4.32;78.17;97641.69;5065309;28;20044;-57
2022/02/27 05:01:27;;;;;;;32.42;12.40;;;;;;;3.93;79.88;97649.03;5065061;28;20048;-57
2022/02/27 05:03:55;;;;;;;49.88;15.77;;;;;;;3.62;80.93;97648.97;5051099;28;20064;-56
2022/02/27 05:06:21;;;;;;;30.27;11.98;;;;;;;3.48;81.95;97648.22;5045123;28;20052;-55
2022/02/27 05:08:48;;;;;;;24.67;11.77;;;;;;;3.41;83.58;97645.13;5044700;28;20068;-55
2022/02/27 05:11:15;;;;;;;28.90;11.57;;;;;;;3.15;84.64;97646.78;5044738;28;20048;-56
2022/02/27 05:13:41;;;;;;;28.85;10.70;;;;;;;2.98;85.92;97632.97;5044667;28;20056;-56
2022/02/27 05:16:08;;;;;;;28.30;11.30;;;;;;;2.62;87.36;97574.66;5045015;28;20045;-56
2022/02/27 05:18:35;;;;;;;23.73;9.30;;;;;;;2.99;88.78;97634.56;5044960;28;20098;-56
2022/02/27 05:21:01;;;;;;;30.63;11.95;;;;;;;3.02;89.61;97634.75;5044783;28;20060;-58
2022/02/27 05:23:28;;;;;;;27.25;12.27;;;;;;;2.75;88.71;97557.44;5044414;28;20056;-56
2022/02/27 05:25:58;;;;;;;29.33;12.65;;;;;;;3.43;87.61;97618.22;5044301;28;20061;-57
2022/02/27 05:28:26;;;;;;;29.92;13.93;;;;;;;3.78;85.88;97633.78;5044903;28;20470;-57
2022/02/27 05:30:54;;;;;;;32.65;14.05;;;;;;;4.02;84.47;97642.47;5044464;28;20135;-56
2022/02/27 05:33:20;;;;;;;32.92;14.02;;;;;;;4.26;83.20;97631.16;5044135;28;20052;-57
2022/02/27 05:35:47;;;;;;;30.77;13.45;;;;;;;4.39;82.20;97631.03;5044657;28;20087;-58
2022/02/27 05:38:14;;;;;;;28.58;13.43;;;;;;;4.55;81.64;97629.50;5044480;28;20083;-56
2022/02/27 05:40:41;;;;;;;29.80;14.00;;;;;;;4.63;81.07;97634.22;5042551;28;20057;-57
2022/02/27 05:43:08;;;;;;;32.35;13.38;;;;;;;4.81;79.79;97637.00;5041691;28;20063;-57
2022/02/27 05:45:35;;;;;;;30.35;13.30;;;;;;;4.15;79.54;97523.72;5044242;28;20495;-56
2022/02/27 05:48:02;;;;;;;31.38;14.85;;;;;;;4.97;79.32;97627.19;5042637;28;20045;-57
2022/02/27 05:50:33;;;;;;;31.70;13.63;;;;;;;5.04;78.98;97641.28;5042608;28;20503;-57
2022/02/27 05:52:59;;;;;;;26.20;12.48;;;;;;;4.71;78.32;97571.47;5042474;28;20067;-57
2022/02/27 05:55:27;;;;;;;30.42;14.15;;;;;;;5.15;78.77;97628.84;5044734;28;20194;-57
2022/02/27 05:57:59;;;;;;;36.58;15.13;;;;;;;4.82;79.34;97611.97;5043643;28;20580;-58
2022/02/27 06:00:26;;;;;;;34.17;16.02;;;;;;;5.06;79.07;97636.28;5044034;28;20048;-56
2022/02/27 06:02:53;;;;;;;36.33;14.70;;;;;;;5.16;78.79;97625.78;5048729;28;20037;-57
2022/02/27 06:05:20;;;;;;;30.95;13.57;;;;;;;5.26;77.49;97633.72;5064004;28;20060;-56
2022/02/27 06:07:47;;;;;;;38.17;16.05;;;;;;;5.14;77.69;97608.03;5064095;28;20048;-56
2022/02/27 06:10:13;;;;;;;38.40;14.88;;;;;;;5.46;76.92;97621.28;5063949;28;20404;-57
2022/02/27 06:12:48;;;;;;;34.45;14.35;;;;;;;5.06;78.09;97611.56;5063601;28;20053;-58
2022/02/27 06:15:18;;;;;;;33.50;15.40;;;;;;;5.31;77.94;97633.53;5062387;28;20056;-57
2022/02/27 06:17:45;;;;;;;33.83;14.77;;;;;;;5.48;76.98;97641.81;5063766;28;20067;-56
2022/02/27 06:20:12;;;;;;;31.83;14.05;;;;;;;5.30;77.23;97615.47;5061976;28;20055;-57
2022/02/27 06:22:50;;;;;;;30.48;14.05;;;;;;;5.10;75.87;97552.13;5063858;28;20697;-57
2022/02/27 06:25:19;;;;;;;33.17;15.13;;;;;;;5.65;75.76;97632.75;5063423;28;20507;-57
2022/02/27 06:27:46;;;;;;;33.63;15.25;;;;;;;5.80;75.38;97632.28;5063514;28;20060;-56
2022/02/27 06:30:18;;;;;;;30.77;14.55;;;;;;;5.85;74.34;97619.19;5063370;28;20048;-56
2022/02/27 06:32:47;;;;;;;28.77;14.70;;;;;;;5.94;74.35;97632.94;5063696;28;20491;-56
2022/02/27 06:35:16;;;;;;;30.67;15.30;;;;;;;6.03;74.35;97625.47;5061854;28;20055;-56
2022/02/27 06:37:43;;;;;;;57.92;24.30;;;;;;;6.01;73.45;97627.72;5063378;28;20097;-56
2022/02/27 06:40:11;;;;;;;43.97;20.65;;;;;;;6.07;73.70;97626.41;5063434;28;20478;-57
2022/02/27 06:42:39;;;;;;;40.85;17.98;;;;;;;6.01;73.84;97624.97;5063043;28;20129;-56
2022/02/27 06:45:07;;;;;;;45.60;20.88;;;;;;;6.02;74.42;97623.84;5061544;28;20057;-56
2022/02/27 06:47:34;;;;;;;34.88;16.30;;;;;;;5.98;74.22;97606.38;5063042;28;20049;-57
2022/02/27 06:50:01;;;;;;;37.35;16.17;;;;;;;5.96;74.20;97630.63;5063081;28;20048;-57
2022/02/27 06:52:27;;;;;;;35.08;18.05;;;;;;;6.03;74.25;97614.47;5063554;28;20079;-57
2022/02/27 06:54:54;;;;;;;36.20;15.80;;;;;;;6.06;74.12;97614.63;5063857;28;20057;-58
2022/02/27 06:57:21;;;;;;;31.75;15.90;;;;;;;6.22;73.58;97612.16;5063381;28;20060;-57
2022/02/27 06:59:47;;;;;;;31.58;14.90;;;;;;;3.54;73.62;97192.38;5063090;28;20060;-57
2022/02/27 07:02:15;;;;;;;47.33;19.45;;;;;;;5.54;74.26;97529.81;5063173;28;20048;-56
2022/02/27 07:04:42;;;;;;;45.88;20.35;;;;;;;6.19;73.43;97615.56;5043315;28;20136;-59
2022/02/27 07:07:11;;;;;;;49.17;20.30;;;;;;;6.13;74.37;97614.13;5043253;28;20081;-57
2022/02/27 07:09:38;;;;;;;36.90;16.67;;;;;;;6.14;73.91;97610.22;5043708;28;20513;-58
2022/02/27 07:12:05;;;;;;;35.58;16.13;;;;;;;5.94;75.12;97617.22;5043848;28;20049;-58
2022/02/27 07:14:32;;;;;;;26.90;14.95;;;;;;;5.84;74.52;97644.25;5043142;28;20060;-58
2022/02/27 07:16:59;;;;;;;30.92;14.45;;;;;;;5.84;74.60;97623.06;5045645;28;20061;-57
2022/02/27 07:19:32;;;;;;;34.75;15.50;;;;;;;5.94;73.56;97633.72;5047055;28;20041;-57
2022/02/27 07:21:59;;;;;;;30.70;14.05;;;;;;;5.88;73.43;97631.47;5045057;28;20071;-56
2022/02/27 07:24:25;;;;;;;32.35;12.88;;;;;;;5.87;73.22;97630.66;5046751;28;20045;-57
2022/02/27 07:26:52;;;;;;;27.30;11.77;;;;;;;5.96;71.78;97619.63;5047054;28;20041;-57
2022/02/27 07:29:19;;;;;;;22.70;11.80;;;;;;;5.88;71.19;97602.03;5045351;28;20064;-57
2022/02/27 07:31:45;;;;;;;23.90;12.73;;;;;;;6.16;71.01;97624.47;5046614;28;20060;-58
2022/02/27 07:34:12;;;;;;;27.30;13.35;;;;;;;5.64;70.14;97540.47;5046319;28;20053;-57
2022/02/27 07:36:39;;;;;;;27.13;11.75;;;;;;;6.23;68.95;97633.00;5045949;28;20131;-56
2022/02/27 07:39:06;;;;;;;30.33;14.15;;;;;;;5.86;69.31;97589.75;5046353;28;20538;-57
2022/02/27 07:41:33;;;;;;;19.25;10.43;;;;;;;5.28;68.72;97493.34;5045088;28;20053;-57
2022/02/27 07:44:00;;;;;;;24.73;12.20;;;;;;;6.19;69.01;97623.81;5046642;28;20130;-56
2022/02/27 07:46:27;;;;;;;22.05;10.98;;;;;;;5.70;68.85;97558.38;5045828;28;20048;-57
2022/02/27 07:48:53;;;;;;;19.80;10.57;;;;;;;6.04;67.46;97616.06;5046200;28;20222;-57
2022/02/27 07:51:25;;;;;;;22.83;10.85;;;;;;;5.67;67.59;97568.09;5046147;28;20048;-57
2022/02/27 07:53:51;;;;;;;23.45;10.65;;;;;;;6.09;68.19;97638.72;5046651;28;20049;-57
2022/02/27 07:56:18;;;;;;;26.73;11.63;;;;;;;6.24;67.62;97620.88;5046398;28;20506;-57
2022/02/27 07:58:44;;;;;;;22.92;11.25;;;;;;;6.23;67.24;97615.72;5045910;28;20053;-58
2022/02/27 08:01:11;;;;;;;20.50;10.32;;;;;;;6.29;66.78;97615.22;5046189;28;20508;-57
2022/02/27 08:03:38;;;;;;;25.60;12.55;;;;;;;6.39;66.34;97617.59;5055845;28;20570;-57
2022/02/27 08:06:05;;;;;;;25.48;13.43;;;;;;;6.10;65.51;97560.56;5065920;28;20053;-58
2022/02/27 08:08:33;;;;;;;23.35;10.95;;;;;;;6.23;64.74;97580.75;5064248;28;20087;-58
2022/02/27 08:11:00;;;;;;;20.75;9.77;;;;;;;6.41;65.40;97615.31;5063942;28;20072;-59
2022/02/27 08:13:27;;;;;;;17.75;9.65;;;;;;;6.34;63.91;97593.00;5065775;28;20052;-58
2022/02/27 08:15:57;;;;;;;19.20;9.73;;;;;;;6.43;63.79;97593.78;5065600;28;20065;-57
2022/02/27 08:18:26;;;;;;;19.58;9.18;;;;;;;6.60;63.66;97601.97;5066216;28;20052;-58
2022/02/27 08:20:54;;;;;;;20.95;9.32;;;;;;;6.56;62.92;97598.25;5065437;28;20057;-56
2022/02/27 08:23:21;;;;;;;19.00;9.05;;;;;;;6.18;62.94;97512.16;5065816;28;20454;-56
2022/02/27 08:25:49;;;;;;;18.27;7.65;;;;;;;6.73;62.06;97589.94;5065772;28;20201;-58
2022/02/27 08:28:16;;;;;;;17.83;8.52;;;;;;;6.60;61.72;97566.19;5063890;28;20045;-57
2022/02/27 08:30:43;;;;;;;17.52;8.73;;;;;;;6.51;62.71;97565.44;5065255;28;20061;-58
2022/02/27 08:33:10;;;;;;;14.43;8.55;;;;;;;6.59;62.00;97555.50;5064068;28;20041;-58
2022/02/27 08:35:37;;;;;;;17.70;8.68;;;;;;;6.45;62.09;97538.44;5065596;28;20072;-57
2022/02/27 08:38:04;;;;;;;17.83;8.63;;;;;;;6.54;60.48;97548.25;5065375;28;20063;-58
2022/02/27 08:40:31;;;;;;;18.38;7.35;;;;;;;6.14;60.66;97509.28;5065536;28;20044;-57
2022/02/27 08:43:00;;;;;;;16.80;8.35;;;;;;;6.58;61.21;97571.22;5065495;28;20063;-57
2022/02/27 08:45:27;;;;;;;18.35;7.32;;;;;;;6.53;60.83;97568.63;5064171;28;20063;-57
2022/02/27 08:47:54;;;;;;;19.65;7.40;;;;;;;6.38;60.56;97571.97;5063894;28;20506;-58
2022/02/27 08:50:22;;;;;;;21.40;8.60;;;;;;;6.38;61.52;97555.44;5063727;28;20052;-58
2022/02/27 08:52:48;;;;;;;21.35;8.57;;;;;;;5.93;60.96;97489.13;5065172;28;20139;-56
2022/02/27 08:55:16;;;;;;;19.90;8.30;;;;;;;6.46;60.44;97560.09;5065379;28;20060;-58
2022/02/27 08:57:44;;;;;;;17.23;8.15;;;;;;;6.45;60.92;97572.22;5065812;28;20075;-57
2022/02/27 09:00:13;;;;;;;19.10;8.73;;;;;;;6.59;60.72;97572.81;5065275;28;20486;-57
2022/02/27 09:02:41;;;;;;;18.52;8.75;;;;;;;6.46;60.71;97562.84;5061664;28;20044;-58
2022/02/27 09:05:08;;;;;;;14.93;7.50;;;;;;;6.42;60.39;97550.88;5043137;28;20593;-57
2022/02/27 09:07:35;;;;;;;15.23;7.43;;;;;;;6.49;60.74;97561.38;5044937;28;20047;-58
2022/02/27 09:10:04;;;;;;;16.58;7.47;;;;;;;6.54;60.56;97559.25;5044883;28;20055;-59
2022/02/27 09:12:31;;;;;;;16.08;8.00;;;;;;;6.43;60.83;97563.53;5045050;28;20063;-58
2022/02/27 09:14:57;;;;;;;15.13;7.85;;;;;;;6.37;61.77;97559.31;5044959;28;20064;-59
2022/02/27 09:17:24;;;;;;;17.77;7.95;;;;;;;6.27;61.71;97559.72;5045247;28;20443;-57
2022/02/27 09:19:51;;;;;;;21.27;8.68;;;;;;;6.26;62.75;97552.56;5043189;28;20442;-58
2022/02/27 09:22:17;;;;;;;20.30;8.93;;;;;;;6.07;62.84;97554.91;5044488;28;20443;-57
2022/02/27 09:24:44;;;;;;;18.27;8.52;;;;;;;6.17;63.24;97557.31;5044509;28;20120;-58
2022/02/27 09:27:11;;;;;;;15.93;7.45;;;;;;;6.09;63.73;97549.91;5043896;28;20053;-59
2022/02/27 09:29:38;;;;;;;15.30;7.53;;;;;;;6.10;63.28;97548.78;5044490;28;20139;-57
2022/02/27 09:32:05;;;;;;;20.13;9.18;;;;;;;5.99;63.52;97525.53;5044408;28;20049;-58
2022/02/27 09:34:31;;;;;;;19.75;8.68;;;;;;;6.18;63.08;97550.66;5044910;28;20139;-58
2022/02/27 09:36:58;;;;;;;17.85;9.18;;;;;;;6.28;63.21;97539.31;5043262;28;20052;-56
2022/02/27 09:39:27;;;;;;;18.98;9.02;;;;;;;6.41;62.88;97537.47;5042188;28;20080;-56
2022/02/27 09:41:54;;;;;;;20.02;8.75;;;;;;;6.48;62.61;97535.78;5042701;28;20049;-56
2022/02/27 09:44:22;;;;;;;14.80;6.97;;;;;;;6.55;63.48;97538.84;5044271;28;20045;-57
2022/02/27 09:46:50;;;;;;;17.27;7.75;;;;;;;6.58;63.12;97527.16;5043426;28;20458;-57
2022/02/27 09:49:17;;;;;;;18.83;8.13;;;;;;;6.55;64.93;97527.84;5044132;28;20045;-59
2022/02/27 09:51:43;;;;;;;14.90;7.63;;;;;;;6.44;67.00;97532.09;5042702;28;20067;-57
2022/02/27 09:54:13;;;;;;;20.95;9.13;;;;;;;6.35;67.30;97525.84;5044176;28;20055;-57
2022/02/27 09:56:41;;;;;;;19.50;9.70;;;;;;;6.25;69.70;97522.66;5043864;28;20510;-56
2022/02/27 09:59:08;;;;;;;18.83;8.93;;;;;;;6.13;69.66;97515.13;5044274;28;20088;-56
2022/02/27 10:01:39;;;;;;;20.58;10.75;;;;;;;5.84;70.25;97498.56;5043499;28;20053;-58
2022/02/27 10:04:31;;;;;;;29.17;11.48;;;;;;;6.02;73.34;97513.88;5054863;28;20064;-56
2022/02/27 10:06:58;;;;;;;22.00;10.25;;;;;;;5.98;74.42;97501.91;5063691;28;20106;-57
2022/02/27 10:09:25;;;;;;;29.55;14.10;;;;;;;5.84;75.18;97506.81;5063847;28;20047;-55
2022/02/27 10:12:30;;;;;;;21.75;9.30;;;;;;;5.74;76.28;97479.63;5064206;28;20102;-56
2022/02/27 10:15:03;;;;;;;28.33;12.23;;;;;;;5.87;77.04;97501.47;5063654;28;20099;-55
2022/02/27 10:17:31;;;;;;;23.37;10.93;;;;;;;5.80;78.24;97501.13;5063865;28;20503;-57
2022/02/27 10:19:58;;;;;;;21.75;10.32;;;;;;;5.72;79.27;97492.91;5062063;28;20044;-56
2022/02/27 10:22:33;;;;;;;23.35;9.80;;;;;;;5.73;81.24;97489.03;5063137;28;20052;-57
2022/02/27 10:25:05;;;;;;;23.73;10.25;;;;;;;5.84;81.93;97482.06;5062064;28;20052;-56
2022/02/27 10:27:45;;;;;;;22.23;10.48;;;;;;;5.72;83.23;97440.69;5063735;28;20482;-57
2022/02/27 10:30:14;;;;;;;26.23;11.70;;;;;;;5.70;84.39;97462.19;5063357;28;20072;-61
2022/02/27 10:33:01;;;;;;;24.00;9.77;;;;;;;5.67;85.16;97482.09;5063793;28;20048;-57
2022/02/27 10:35:38;;;;;;;21.98;10.68;;;;;;;5.58;86.07;97486.81;5061582;28;20060;-57
2022/02/27 10:38:07;;;;;;;23.67;10.70;;;;;;;5.42;88.07;97482.97;5063226;28;20129;-58
2022/02/27 10:40:37;;;;;;;30.45;11.27;;;;;;;5.22;89.62;97467.16;5061928;28;20063;-58
2022/02/27 10:43:08;;;;;;;26.05;11.68;;;;;;;5.17;92.27;97475.59;5062051;28;20052;-57
2022/02/27 10:45:36;;;;;;;23.73;10.35;;;;;;;4.80;90.65;97421.34;5062856;28;20053;-57
2022/02/27 10:48:14;;;;;;;20.83;10.50;;;;;;;5.06;92.62;97441.34;5063718;28;20127;-59
2022/02/27 10:50:44;;;;;;;27.77;11.73;;;;;;;5.20;93.20;97452.97;5065832;28;20138;-59
2022/02/27 10:53:15;;;;;;;31.90;14.77;;;;;;;4.53;93.98;97384.91;5067397;28;20430;-58
2022/02/27 10:55:42;;;;;;;26.73;12.27;;;;;;;5.02;92.46;97459.59;5065571;28;20048;-58
2022/02/27 10:58:09;;;;;;;47.17;16.50;;;;;;;5.17;94.04;97446.16;5066028;28;20067;-58
2022/02/27 11:00:36;;;;;;;60.92;21.58;;;;;;;5.22;92.81;97450.69;5067453;28;20076;-57
2022/02/27 11:03:06;;;;;;;75.63;28.10;;;;;;;4.50;92.45;97314.22;5064395;28;20462;-56
2022/02/27 11:05:35;;;;;;;55.25;22.45;;;;;;;5.19;93.04;97437.59;5046089;28;20072;-57
2022/02/27 11:08:05;;;;;;;83.07;29.42;;;;;;;4.57;93.78;97343.88;5045964;28;20551;-57
2022/02/27 11:10:34;;;;;;;48.33;16.95;;;;;;;4.74;94.89;97381.50;5045395;28;20852;-57
2022/02/27 11:13:03;;;;;;;59.80;23.67;;;;;;;5.08;93.59;97431.66;5046782;28;20060;-58
2022/02/27 11:15:30;;;;;;;37.00;15.63;;;;;;;4.69;95.93;97366.00;5047122;28;20061;-58
2022/02/27 11:17:57;;;;;;;38.92;14.27;;;;;;;5.09;95.40;97425.03;5045155;28;20051;-59
2022/02/27 11:20:25;;;;;;;28.33;13.70;;;;;;;4.95;95.03;97423.59;5047212;28;20045;-57
2022/02/27 11:22:54;;;;;;;33.67;15.85;;;;;;;4.88;97.06;97418.59;5046876;28;20089;-58
2022/02/27 11:25:23;;;;;;;34.70;13.10;;;;;;;4.49;97.28;97366.66;5045396;28;20053;-58
2022/02/27 11:28:00;;;;;;;25.17;12.07;;;;;;;4.73;97.13;97426.53;5045870;28;20451;-57
2022/02/27 11:30:30;;;;;;;29.60;12.25;;;;;;;4.71;98.14;97428.78;5047334;28;20044;-58